createdAt,value
2023-12-17T00:02:10.860Z,101209.31
2023-12-17T00:04:38.565Z,101213.31
2023-12-17T00:07:06.219Z,101212.47
2023-12-17T00:09:33.769Z,101217.81
2023-12-17T00:12:01.292Z,101217.84
2023-12-17T00:14:28.925Z,101213.97
2023-12-17T00:16:56.432Z,101210.53
2023-12-17T00:19:24.136Z,101209.75
2023-12-17T00:21:51.717Z,101222.47
2023-12-17T00:24:19.487Z,101213.84
2023-12-17T00:26:47.190Z,101209.13
2023-12-17T00:29:14.753Z,101201.53
2023-12-17T00:31:42.302Z,101201.16
2023-12-17T00:34:09.966Z,101197.16
2023-12-17T00:36:37.677Z,101195.91
2023-12-17T00:39:06.098Z,101209.00
2023-12-17T00:41:34.864Z,101207.19
2023-12-17T00:44:02.533Z,101201.44
2023-12-17T00:46:30.015Z,101195.91
2023-12-17T00:48:57.844Z,101196.84
2023-12-17T00:51:25.464Z,101193.31
2023-12-17T00:53:53.035Z,101204.94
2023-12-17T00:56:20.626Z,101203.75
2023-12-17T00:58:48.156Z,101206.03
2023-12-17T01:01:15.848Z,101217.03
2023-12-17T01:03:44.280Z,101232.34
2023-12-17T01:06:12.167Z,101219.72
2023-12-17T01:08:39.772Z,101215.97
2023-12-17T01:11:07.340Z,101215.63
2023-12-17T01:13:37.160Z,101205.47
2023-12-17T01:16:06.290Z,101211.91
2023-12-17T01:18:36.792Z,101209.84
2023-12-17T01:21:06.538Z,101203.41
2023-12-17T01:23:34.150Z,101201.75
2023-12-17T01:26:01.802Z,101195.69
2023-12-17T01:28:29.419Z,101184.25
2023-12-17T01:30:57.017Z,101180.16
2023-12-17T01:33:24.659Z,101180.09
2023-12-17T01:35:52.332Z,101185.09
2023-12-17T01:38:19.938Z,101193.38
2023-12-17T01:40:47.510Z,101208.59
2023-12-17T01:43:15.038Z,101219.50
2023-12-17T01:45:42.607Z,101206.31
2023-12-17T01:48:10.541Z,101210.75
2023-12-17T01:50:38.929Z,101202.69
2023-12-17T01:53:06.887Z,101202.84
2023-12-17T01:55:34.547Z,101190.00
2023-12-17T01:58:04.167Z,101196.69
2023-12-17T02:00:31.962Z,101212.25
2023-12-17T02:02:59.622Z,101214.66
2023-12-17T02:05:27.280Z,101213.34
2023-12-17T02:07:54.871Z,101199.69
2023-12-17T02:10:22.499Z,101206.00
2023-12-17T02:12:50.068Z,101201.97
2023-12-17T02:15:17.739Z,101188.41
2023-12-17T02:17:45.954Z,101187.25
2023-12-17T02:20:13.771Z,101193.44
2023-12-17T02:22:43.752Z,101193.34
2023-12-17T02:25:11.803Z,101186.94
2023-12-17T02:27:39.628Z,101182.06
2023-12-17T02:30:07.932Z,101179.31
2023-12-17T02:32:36.032Z,101191.44
2023-12-17T02:35:03.945Z,101181.41
2023-12-17T02:37:31.579Z,101191.50
2023-12-17T02:39:59.231Z,101169.19
2023-12-17T02:42:26.916Z,101174.81
2023-12-17T02:44:54.578Z,101167.31
2023-12-17T02:47:22.143Z,101164.88
2023-12-17T02:49:49.737Z,101174.66
2023-12-17T02:52:17.464Z,101159.91
2023-12-17T02:54:45.091Z,101161.81
2023-12-17T02:57:12.750Z,101164.69
2023-12-17T02:59:41.215Z,101161.50
2023-12-17T03:02:08.888Z,101156.25
2023-12-17T03:04:36.413Z,101140.97
2023-12-17T03:07:04.161Z,101150.56
2023-12-17T03:09:32.022Z,101147.47
2023-12-17T03:11:59.712Z,101138.53
2023-12-17T03:14:27.386Z,101150.31
2023-12-17T03:16:54.872Z,101148.31
2023-12-17T03:19:22.570Z,101159.44
2023-12-17T03:21:50.641Z,101154.75
2023-12-17T03:24:18.232Z,101163.88
2023-12-17T03:26:45.932Z,101154.88
2023-12-17T03:29:13.536Z,101157.63
2023-12-17T03:31:41.173Z,101167.66
2023-12-17T03:34:08.836Z,101160.38
2023-12-17T03:36:36.560Z,101156.72
2023-12-17T03:39:04.422Z,101159.97
2023-12-17T03:41:32.146Z,101163.13
2023-12-17T03:43:59.703Z,101166.47
2023-12-17T03:46:27.378Z,101163.50
2023-12-17T03:48:55.198Z,101152.00
2023-12-17T03:51:23.152Z,101140.53
2023-12-17T03:53:50.775Z,101142.66
2023-12-17T03:56:18.589Z,101145.88
2023-12-17T03:58:46.250Z,101137.53
2023-12-17T04:01:13.899Z,101139.41
2023-12-17T04:03:41.836Z,101139.53
2023-12-17T04:06:09.874Z,101140.38
2023-12-17T04:08:37.466Z,101145.00
2023-12-17T04:11:05.264Z,101130.66
2023-12-17T04:13:32.905Z,101141.72
2023-12-17T04:16:00.512Z,101127.00
2023-12-17T04:18:28.240Z,101119.09
2023-12-17T04:20:55.998Z,101113.09
2023-12-17T04:23:23.576Z,101111.75
2023-12-17T04:25:51.245Z,101126.19
2023-12-17T04:28:18.876Z,101123.91
2023-12-17T04:30:46.613Z,101128.16
2023-12-17T04:33:14.428Z,101135.28
2023-12-17T04:35:42.138Z,101143.97
2023-12-17T04:38:09.777Z,101132.91
2023-12-17T04:40:49.570Z,101134.09
2023-12-17T04:43:19.701Z,101129.25
2023-12-17T04:45:47.257Z,101131.66
2023-12-17T04:48:14.915Z,101130.25
2023-12-17T04:50:44.360Z,101127.06
2023-12-17T04:53:12.108Z,101124.25
2023-12-17T04:55:39.783Z,101122.41
2023-12-17T04:58:07.439Z,101126.28
2023-12-17T05:00:35.182Z,101132.25
2023-12-17T05:03:02.990Z,101132.84
2023-12-17T05:05:30.632Z,101142.41
2023-12-17T05:07:58.772Z,101137.63
2023-12-17T05:10:26.283Z,101139.78
2023-12-17T05:12:56.875Z,101147.78
2023-12-17T05:15:24.577Z,101142.72
2023-12-17T05:17:52.437Z,101141.19
2023-12-17T05:20:20.786Z,101140.19
2023-12-17T05:22:48.381Z,101143.84
2023-12-17T05:25:16.923Z,101142.88
2023-12-17T05:27:44.699Z,101138.06
2023-12-17T05:30:13.084Z,101137.34
2023-12-17T05:32:41.202Z,101134.53
2023-12-17T05:35:09.294Z,101148.50
2023-12-17T05:37:37.061Z,101153.44
2023-12-17T05:40:07.804Z,101151.91
2023-12-17T05:42:36.520Z,101159.97
2023-12-17T05:45:04.495Z,101157.69
2023-12-17T05:47:32.247Z,101151.25
2023-12-17T05:50:00.271Z,101139.13
2023-12-17T05:52:28.274Z,101152.28
2023-12-17T05:54:55.855Z,101160.53
2023-12-17T05:57:23.469Z,101147.22
2023-12-17T05:59:51.105Z,101146.31
2023-12-17T06:02:18.697Z,101137.22
2023-12-17T06:04:46.413Z,101136.00
2023-12-17T06:07:14.093Z,101138.94
2023-12-17T06:09:41.762Z,101128.47
2023-12-17T06:12:09.512Z,101128.53
2023-12-17T06:14:37.133Z,101118.81
2023-12-17T06:17:04.825Z,101124.34
2023-12-17T06:19:32.865Z,101113.38
2023-12-17T06:22:03.830Z,101113.81
2023-12-17T06:24:31.592Z,101114.53
2023-12-17T06:26:59.291Z,101119.16
2023-12-17T06:29:26.827Z,101111.63
2023-12-17T06:31:54.355Z,101101.59
2023-12-17T06:34:22.734Z,101111.41
2023-12-17T06:36:50.542Z,101119.75
2023-12-17T06:39:18.120Z,101126.91
2023-12-17T06:41:46.933Z,101132.22
2023-12-17T06:44:15.808Z,101125.00
2023-12-17T06:46:43.445Z,101122.41
2023-12-17T06:49:11.524Z,101111.44
2023-12-17T06:51:41.014Z,101113.03
2023-12-17T06:54:09.628Z,101113.94
2023-12-17T06:56:37.236Z,101124.41
2023-12-17T06:59:04.831Z,101120.16
2023-12-17T07:01:32.622Z,101117.50
2023-12-17T07:04:00.399Z,101126.28
2023-12-17T07:06:28.070Z,101128.19
2023-12-17T07:08:55.673Z,101115.41
2023-12-17T07:11:23.275Z,101111.94
2023-12-17T07:13:50.962Z,101105.88
2023-12-17T07:16:25.446Z,101097.84
2023-12-17T07:18:53.346Z,101103.19
2023-12-17T07:21:21.352Z,101095.84
2023-12-17T07:23:49.558Z,101098.78
2023-12-17T07:26:17.112Z,101094.81
2023-12-17T07:28:44.690Z,101103.06
2023-12-17T07:31:12.265Z,101097.53
2023-12-17T07:33:40.049Z,101098.78
2023-12-17T07:36:08.616Z,101098.50
2023-12-17T07:38:36.280Z,101087.03
2023-12-17T07:41:04.157Z,101101.56
2023-12-17T07:43:31.847Z,101102.00
2023-12-17T07:45:59.424Z,101102.88
2023-12-17T07:48:27.180Z,101103.09
2023-12-17T07:50:55.999Z,101100.72
2023-12-17T07:53:23.740Z,101112.28
2023-12-17T07:55:51.872Z,101108.94
2023-12-17T07:58:19.448Z,101108.00
2023-12-17T08:00:47.091Z,101120.25
2023-12-17T08:03:14.652Z,101112.25
2023-12-17T08:05:42.398Z,101109.34
2023-12-17T08:08:09.986Z,101116.50
2023-12-17T08:10:37.624Z,101114.81
2023-12-17T08:13:05.146Z,101112.41
2023-12-17T08:15:32.883Z,101114.72
2023-12-17T08:18:00.714Z,101120.44
2023-12-17T08:20:28.408Z,101125.38
2023-12-17T08:22:56.051Z,101121.50
2023-12-17T08:25:23.592Z,101117.94
2023-12-17T08:27:51.736Z,101123.91
2023-12-17T08:30:19.567Z,101120.56
2023-12-17T08:32:47.726Z,101122.72
2023-12-17T08:35:16.181Z,101127.13
2023-12-17T08:37:43.883Z,101132.88
2023-12-17T08:40:12.222Z,101139.59
2023-12-17T08:42:39.792Z,101139.44
2023-12-17T08:45:13.114Z,101136.59
2023-12-17T08:47:41.968Z,101143.94
2023-12-17T08:50:09.972Z,101136.53
2023-12-17T08:52:38.084Z,101151.38
2023-12-17T08:55:06.234Z,101142.72
2023-12-17T08:57:33.960Z,101151.84
2023-12-17T09:00:01.689Z,101147.47
2023-12-17T09:02:29.960Z,101150.00
2023-12-17T09:04:58.595Z,101147.38
2023-12-17T09:07:26.309Z,101149.06
2023-12-17T09:09:54.127Z,101144.72
2023-12-17T09:12:21.774Z,101138.56
2023-12-17T09:14:50.284Z,101133.72
2023-12-17T09:17:18.117Z,101133.16
2023-12-17T09:19:46.032Z,101132.44
2023-12-17T09:22:13.641Z,101130.91
2023-12-17T09:24:41.676Z,101131.44
2023-12-17T09:27:09.339Z,101140.13
2023-12-17T09:29:36.961Z,101135.09
2023-12-17T09:32:05.746Z,101128.91
2023-12-17T09:34:33.569Z,101129.84
2023-12-17T09:37:01.732Z,101124.00
2023-12-17T09:39:29.373Z,101116.81
2023-12-17T09:41:57.003Z,101110.72
2023-12-17T09:44:24.874Z,101110.22
2023-12-17T09:46:52.466Z,101110.53
2023-12-17T09:49:20.249Z,101104.22
2023-12-17T09:51:51.972Z,101104.00
2023-12-17T09:54:19.629Z,101108.47
2023-12-17T09:56:51.339Z,101103.78
2023-12-17T09:59:18.984Z,101102.59
2023-12-17T10:01:46.891Z,101103.91
2023-12-17T10:04:14.652Z,101096.72
2023-12-17T10:06:42.324Z,101088.16
2023-12-17T10:09:10.070Z,101090.88
2023-12-17T10:11:38.549Z,101092.84
2023-12-17T10:14:06.261Z,101100.94
2023-12-17T10:16:33.852Z,101086.38
2023-12-17T10:19:01.680Z,101085.88
2023-12-17T10:21:29.359Z,101069.16
2023-12-17T10:23:58.516Z,101070.25
2023-12-17T10:26:26.251Z,101067.69
2023-12-17T10:28:55.689Z,101061.13
2023-12-17T10:31:25.915Z,101052.63
2023-12-17T10:34:02.543Z,101057.44
2023-12-17T10:36:30.347Z,101061.97
2023-12-17T10:39:00.867Z,101057.44
2023-12-17T10:41:30.320Z,101047.47
2023-12-17T10:43:59.191Z,101049.94
2023-12-17T10:46:27.530Z,101046.78
2023-12-17T10:48:55.640Z,101053.72
2023-12-17T10:51:26.310Z,101044.50
2023-12-17T10:53:53.931Z,101052.19
2023-12-17T10:56:21.964Z,101035.00
2023-12-17T10:58:50.444Z,101028.00
2023-12-17T11:01:19.031Z,101042.84
2023-12-17T11:03:47.204Z,101031.75
2023-12-17T11:06:16.089Z,101040.00
2023-12-17T11:08:43.720Z,101038.63
2023-12-17T11:11:11.640Z,101038.28
2023-12-17T11:13:39.218Z,101023.97
2023-12-17T11:16:22.991Z,101025.78
2023-12-17T11:18:51.143Z,101021.41
2023-12-17T11:21:19.613Z,101020.53
2023-12-17T11:23:50.930Z,101023.75
2023-12-17T11:26:19.910Z,101025.16
2023-12-17T11:28:47.879Z,101022.16
2023-12-17T11:31:16.050Z,101016.19
2023-12-17T11:33:45.380Z,101017.53
2023-12-17T11:36:13.888Z,101022.66
2023-12-17T11:38:41.578Z,101015.50
2023-12-17T11:41:09.156Z,101027.22
2023-12-17T11:43:36.733Z,101025.50
2023-12-17T11:46:04.676Z,101033.69
2023-12-17T11:48:33.165Z,101023.47
2023-12-17T11:51:00.977Z,101029.63
2023-12-17T11:53:29.366Z,101023.22
2023-12-17T11:56:04.545Z,101005.13
2023-12-17T11:58:32.537Z,101019.84
2023-12-17T12:01:10.798Z,101015.19
2023-12-17T12:03:40.666Z,101015.56
2023-12-17T12:06:10.814Z,100998.28
2023-12-17T12:08:49.579Z,101003.78
2023-12-17T12:11:22.661Z,101003.53
2023-12-17T12:13:52.237Z,101003.19
2023-12-17T12:16:22.048Z,100994.09
2023-12-17T12:19:01.515Z,100994.81
2023-12-17T12:21:29.388Z,101004.25
2023-12-17T12:23:58.670Z,101001.84
2023-12-17T12:26:26.730Z,101003.03
2023-12-17T12:29:08.043Z,101006.31
2023-12-17T12:31:35.858Z,101009.13
2023-12-17T12:34:05.560Z,101009.53
2023-12-17T12:36:47.510Z,101009.91
2023-12-17T12:39:17.234Z,101007.66
2023-12-17T12:41:47.560Z,101021.09
2023-12-17T12:44:16.832Z,101015.41
2023-12-17T12:46:49.120Z,101011.50
2023-12-17T12:49:18.754Z,101012.75
2023-12-17T12:51:47.896Z,101012.13
2023-12-17T12:54:15.581Z,101012.03
2023-12-17T12:56:43.327Z,101010.34
2023-12-17T12:59:22.544Z,101012.31
2023-12-17T13:01:55.024Z,101014.63
2023-12-17T13:04:22.872Z,101004.88
2023-12-17T13:06:50.586Z,101000.25
2023-12-17T13:09:21.003Z,100999.66
2023-12-17T13:11:50.986Z,101003.97
2023-12-17T13:14:20.659Z,101004.75
2023-12-17T13:16:52.334Z,100995.38
2023-12-17T13:19:20.344Z,101002.75
2023-12-17T13:21:49.345Z,100990.00
2023-12-17T13:24:17.010Z,100992.31
2023-12-17T13:26:44.707Z,100987.66
2023-12-17T13:29:12.275Z,100985.69
2023-12-17T13:31:40.066Z,100993.47
2023-12-17T13:34:07.799Z,100999.09
2023-12-17T13:36:35.518Z,101008.47
2023-12-17T13:39:05.443Z,101002.84
2023-12-17T13:41:41.368Z,100997.59
2023-12-17T13:44:12.627Z,100999.34
2023-12-17T13:46:41.038Z,100992.78
2023-12-17T13:49:09.086Z,100994.84
2023-12-17T13:51:37.224Z,100993.13
2023-12-17T13:54:05.315Z,100992.34
2023-12-17T13:56:38.742Z,100987.16
2023-12-17T13:59:11.757Z,100988.03
2023-12-17T14:01:39.549Z,100993.47
2023-12-17T14:04:07.365Z,100999.09
2023-12-17T14:06:36.258Z,101000.84
2023-12-17T14:09:03.965Z,101000.44
2023-12-17T14:11:34.488Z,100999.75
2023-12-17T14:14:02.593Z,100991.72
2023-12-17T14:16:32.030Z,100987.72
2023-12-17T14:19:01.148Z,100986.28
2023-12-17T14:21:30.472Z,100986.72
2023-12-17T14:23:58.292Z,100970.19
2023-12-17T14:26:26.052Z,100977.66
2023-12-17T14:28:53.645Z,100973.78
2023-12-17T14:31:29.313Z,100969.69
2023-12-17T14:34:02.148Z,100969.28
2023-12-17T14:36:31.883Z,100965.84
2023-12-17T14:38:59.565Z,100972.53
2023-12-17T14:41:27.126Z,100966.94
2023-12-17T14:43:55.042Z,100979.41
2023-12-17T14:46:22.682Z,100973.25
2023-12-17T14:48:50.803Z,100979.25
2023-12-17T14:51:19.509Z,100976.41
2023-12-17T14:53:53.435Z,100983.34
2023-12-17T14:56:26.190Z,100986.38
2023-12-17T14:58:57.743Z,100984.00
2023-12-17T15:01:31.814Z,100990.47
2023-12-17T15:04:03.552Z,100984.59
2023-12-17T15:06:32.134Z,100981.13
2023-12-17T15:09:02.128Z,100971.50
2023-12-17T15:11:30.075Z,100969.06
2023-12-17T15:14:00.618Z,100968.28
2023-12-17T15:16:30.035Z,100968.13
2023-12-17T15:18:58.529Z,100971.00
2023-12-17T15:21:26.513Z,100972.22
2023-12-17T15:23:54.214Z,100964.00
2023-12-17T15:26:21.774Z,100969.41
2023-12-17T15:28:53.506Z,100974.41
2023-12-17T15:31:21.158Z,100965.28
2023-12-17T15:33:48.999Z,100964.44
2023-12-17T15:36:17.721Z,100966.09
2023-12-17T15:38:45.972Z,100969.91
2023-12-17T15:41:20.420Z,100968.84
2023-12-17T15:43:48.944Z,100961.91
2023-12-17T15:46:24.109Z,100959.09
2023-12-17T15:48:52.218Z,100967.38
2023-12-17T15:51:20.890Z,100958.69
2023-12-17T15:53:53.927Z,100965.16
2023-12-17T15:56:22.126Z,100969.81
2023-12-17T15:58:50.372Z,100964.88
2023-12-17T16:01:19.349Z,100965.38
2023-12-17T16:03:47.553Z,100964.34
2023-12-17T16:06:15.771Z,100951.84
2023-12-17T16:08:43.486Z,100951.41
2023-12-17T16:11:11.184Z,100952.88
2023-12-17T16:13:39.028Z,100949.44
2023-12-17T16:16:06.817Z,100948.09
2023-12-17T16:18:36.223Z,100961.94
2023-12-17T16:21:05.372Z,100963.94
2023-12-17T16:23:33.170Z,100973.09
2023-12-17T16:26:00.778Z,100961.03
2023-12-17T16:28:28.321Z,100957.72
2023-12-17T16:30:56.083Z,100965.84
2023-12-17T16:33:23.833Z,100966.72
2023-12-17T16:35:53.520Z,100961.38
2023-12-17T16:38:21.609Z,100963.22
2023-12-17T16:40:49.277Z,100969.78
2023-12-17T16:43:16.946Z,100960.59
2023-12-17T16:45:45.807Z,100958.28
2023-12-17T16:48:16.232Z,100960.81
2023-12-17T16:50:45.842Z,100962.13
2023-12-17T16:53:14.329Z,100963.13
2023-12-17T16:55:43.440Z,100954.44
2023-12-17T16:58:11.118Z,100953.25
2023-12-17T17:00:39.289Z,100968.16
2023-12-17T17:03:07.136Z,100960.47
2023-12-17T17:05:34.807Z,100960.66
2023-12-17T17:08:02.267Z,100965.53
2023-12-17T17:10:29.887Z,100974.69
2023-12-17T17:12:57.506Z,100977.31
2023-12-17T17:15:25.442Z,100977.41
2023-12-17T17:17:53.164Z,100974.31
2023-12-17T17:20:21.559Z,100971.53
2023-12-17T17:22:49.296Z,100952.16
2023-12-17T17:25:16.969Z,100949.44
2023-12-17T17:27:44.566Z,100945.34
2023-12-17T17:30:13.269Z,100945.44
2023-12-17T17:32:41.381Z,100945.72
2023-12-17T17:35:12.202Z,100953.34
2023-12-17T17:37:39.823Z,100952.97
2023-12-17T17:40:08.437Z,100944.44
2023-12-17T17:42:36.679Z,100949.25
2023-12-17T17:45:04.718Z,100948.00
2023-12-17T17:47:32.393Z,100940.25
2023-12-17T17:50:00.426Z,100948.97
2023-12-17T17:52:28.146Z,100955.00
2023-12-17T17:54:55.810Z,100956.41
2023-12-17T17:57:23.826Z,100956.91
2023-12-17T17:59:52.957Z,100952.84
2023-12-17T18:02:20.637Z,100955.16
2023-12-17T18:04:48.567Z,100962.06
2023-12-17T18:07:17.067Z,100959.69
2023-12-17T18:09:45.238Z,100960.09
2023-12-17T18:12:12.898Z,100968.25
2023-12-17T18:14:40.797Z,100976.63
2023-12-17T18:17:08.894Z,100968.97
2023-12-17T18:19:36.646Z,100976.28
2023-12-17T18:22:04.460Z,100974.13
2023-12-17T18:24:32.037Z,100986.03
2023-12-17T18:27:02.217Z,100978.56
2023-12-17T18:29:29.980Z,100973.38
2023-12-17T18:31:57.811Z,100974.69
2023-12-17T18:34:50.757Z,100968.47
2023-12-17T18:37:19.710Z,100973.84
2023-12-17T18:39:49.597Z,100968.38
2023-12-17T18:42:17.306Z,100958.69
2023-12-17T18:44:45.028Z,100954.81
2023-12-17T18:47:12.660Z,100951.13
2023-12-17T18:49:40.617Z,100952.22
2023-12-17T18:52:08.301Z,100949.31
2023-12-17T18:54:55.586Z,100937.09
2023-12-17T18:57:24.335Z,100921.41
2023-12-17T18:59:52.899Z,100920.63
2023-12-17T19:02:22.548Z,100923.13
2023-12-17T19:04:50.895Z,100928.44
2023-12-17T19:07:22.329Z,100924.88
2023-12-17T19:09:50.192Z,100923.00
2023-12-17T19:12:21.154Z,100918.25
2023-12-17T19:14:48.950Z,100923.56
2023-12-17T19:17:17.872Z,100933.50
2023-12-17T19:19:45.872Z,100913.03
2023-12-17T19:22:19.057Z,100919.06
2023-12-17T19:24:46.681Z,100915.84
2023-12-17T19:27:14.497Z,100913.38
2023-12-17T19:29:42.142Z,100929.22
2023-12-17T19:32:09.659Z,100920.47
2023-12-17T19:34:40.306Z,100916.50
2023-12-17T19:37:09.097Z,100910.78
2023-12-17T19:39:39.287Z,100897.22
2023-12-17T19:42:08.042Z,100905.94
2023-12-17T19:44:36.246Z,100898.22
2023-12-17T19:47:05.139Z,100909.81
2023-12-17T19:49:36.609Z,100902.47
2023-12-17T19:52:04.685Z,100906.94
2023-12-17T19:54:36.596Z,100904.09
2023-12-17T19:57:06.351Z,100905.09
2023-12-17T19:59:35.356Z,100904.34
2023-12-17T20:02:03.047Z,100902.63
2023-12-17T20:04:30.870Z,100899.19
2023-12-17T20:06:58.906Z,100899.47
2023-12-17T20:09:26.600Z,100893.78
2023-12-17T20:11:54.350Z,100884.31
2023-12-17T20:14:21.942Z,100900.84
2023-12-17T20:16:49.586Z,100897.44
2023-12-17T20:19:17.312Z,100894.69
2023-12-17T20:21:45.187Z,100885.16
2023-12-17T20:24:14.334Z,100881.50
2023-12-17T20:26:42.342Z,100888.16
2023-12-17T20:29:10.023Z,100887.88
2023-12-17T20:31:38.602Z,100890.22
2023-12-17T20:34:06.311Z,100886.22
2023-12-17T20:36:34.105Z,100883.75
2023-12-17T20:39:03.183Z,100878.47
2023-12-17T20:41:30.822Z,100871.06
2023-12-17T20:43:58.437Z,100871.50
2023-12-17T20:46:26.110Z,100883.47
2023-12-17T20:48:54.167Z,100876.19
2023-12-17T20:51:21.842Z,100880.56
2023-12-17T20:53:49.450Z,100878.31
2023-12-17T20:56:17.200Z,100864.78
2023-12-17T20:58:46.367Z,100873.00
2023-12-17T21:01:14.017Z,100869.78
2023-12-17T21:03:41.814Z,100868.34
2023-12-17T21:06:09.985Z,100862.44
2023-12-17T21:08:37.613Z,100870.22
2023-12-17T21:11:05.245Z,100861.88
2023-12-17T21:13:33.050Z,100864.13
2023-12-17T21:16:00.798Z,100860.50
2023-12-17T21:18:28.780Z,100854.25
2023-12-17T21:21:04.214Z,100856.75
2023-12-17T21:23:33.341Z,100850.38
2023-12-17T21:26:03.718Z,100859.69
2023-12-17T21:28:32.349Z,100861.69
2023-12-17T21:30:59.997Z,100866.75
2023-12-17T21:33:27.755Z,100870.31
2023-12-17T21:35:55.445Z,100871.50
2023-12-17T21:38:22.991Z,100886.16
2023-12-17T21:40:53.421Z,100868.41
2023-12-17T21:43:21.295Z,100860.41
2023-12-17T21:45:51.762Z,100854.59
2023-12-17T21:48:19.475Z,100856.47
2023-12-17T21:50:49.908Z,100859.09
2023-12-17T21:53:17.663Z,100861.44
2023-12-17T21:55:57.384Z,100859.06
2023-12-17T21:58:25.839Z,100852.78
2023-12-17T22:00:56.070Z,100855.41
2023-12-17T22:03:24.149Z,100863.28
2023-12-17T22:05:51.967Z,100863.94
2023-12-17T22:08:19.610Z,100858.41
2023-12-17T22:10:54.201Z,100849.31
2023-12-17T22:13:21.746Z,100848.75
2023-12-17T22:15:52.481Z,100843.94
2023-12-17T22:18:21.656Z,100842.69
2023-12-17T22:20:49.523Z,100843.50
2023-12-17T22:23:17.067Z,100850.44
2023-12-17T22:25:52.637Z,100857.63
2023-12-17T22:28:21.463Z,100843.28
2023-12-17T22:30:51.288Z,100840.09
2023-12-17T22:33:19.190Z,100857.00
2023-12-17T22:35:46.791Z,100848.59
2023-12-17T22:38:14.301Z,100842.69
2023-12-17T22:40:42.619Z,100845.16
2023-12-17T22:43:10.179Z,100837.47
2023-12-17T22:45:37.862Z,100836.88
2023-12-17T22:48:06.171Z,100833.03
2023-12-17T22:50:33.876Z,100837.88
2023-12-17T22:53:02.005Z,100838.94
2023-12-17T22:55:29.517Z,100836.50
2023-12-17T22:57:59.085Z,100831.47
2023-12-17T23:00:26.718Z,100834.34
2023-12-17T23:02:54.345Z,100821.88
2023-12-17T23:05:21.983Z,100827.28
2023-12-17T23:07:49.651Z,100825.31
2023-12-17T23:10:18.984Z,100834.53
2023-12-17T23:12:46.804Z,100824.53
2023-12-17T23:15:14.337Z,100828.09
2023-12-17T23:17:42.297Z,100829.22
2023-12-17T23:20:10.634Z,100821.97
2023-12-17T23:22:38.281Z,100824.53
2023-12-17T23:25:06.100Z,100827.03
2023-12-17T23:27:33.759Z,100826.34
2023-12-17T23:30:01.380Z,100820.25
2023-12-17T23:32:30.744Z,100817.28
2023-12-17T23:34:58.685Z,100816.63
2023-12-17T23:37:26.272Z,100809.28
2023-12-17T23:39:53.773Z,100814.13
2023-12-17T23:42:21.423Z,100809.50
2023-12-17T23:44:50.493Z,100805.41
2023-12-17T23:47:17.971Z,100808.41
2023-12-17T23:49:45.486Z,100801.75
2023-12-17T23:52:13.355Z,100799.59
2023-12-17T23:54:40.864Z,100798.22
2023-12-17T23:57:08.397Z,100791.13
2023-12-17T23:59:35.928Z,100807.53
